createdAt,value
2022-10-26T00:03:01.073Z,18.13
2022-10-26T00:08:04.047Z,16.04
2022-10-26T00:13:10.821Z,16.65
2022-10-26T00:18:13.387Z,17.74
2022-10-26T00:23:16.138Z,18.24
2022-10-26T00:28:18.847Z,18.51
2022-10-26T00:33:21.555Z,17.27
2022-10-26T00:38:24.722Z,16.61
2022-10-26T00:43:27.356Z,17.71
2022-10-26T00:48:34.522Z,18.21
2022-10-26T00:53:38.013Z,18.50
2022-10-26T00:58:41.156Z,17.64
2022-10-26T01:03:45.045Z,16.45
2022-10-26T01:08:48.547Z,17.56
2022-10-26T01:13:54.405Z,18.20
2022-10-26T01:19:23.438Z,18.58
2022-10-26T01:24:29.090Z,17.40
2022-10-26T01:30:05.939Z,16.39
2022-10-26T01:35:35.461Z,17.75
2022-10-26T01:40:46.570Z,18.36
2022-10-26T01:45:51.820Z,18.10
2022-10-26T01:50:57.632Z,16.24
2022-10-26T01:56:01.784Z,17.12
2022-10-26T02:01:46.242Z,18.03
2022-10-26T02:07:15.473Z,18.45
2022-10-26T02:12:52.799Z,17.25
2022-10-26T02:18:11.998Z,16.25
2022-10-26T02:23:15.494Z,17.51
2022-10-26T02:28:22.693Z,18.04
2022-10-26T02:33:30.634Z,18.24
2022-10-26T02:38:35.690Z,17.88
2022-10-26T02:43:45.039Z,16.10
2022-10-26T02:48:47.809Z,17.03
2022-10-26T02:53:50.423Z,17.78
2022-10-26T02:58:57.983Z,18.14
2022-10-26T03:04:01.096Z,18.25
2022-10-26T03:09:04.379Z,16.55
2022-10-26T03:14:07.064Z,15.77
2022-10-26T03:19:09.787Z,17.15
2022-10-26T03:24:12.480Z,17.80
2022-10-26T03:29:15.263Z,17.93
2022-10-26T03:34:17.974Z,18.12
2022-10-26T03:39:20.676Z,17.49
2022-10-26T03:44:23.645Z,16.18
2022-10-26T03:49:26.357Z,17.20
2022-10-26T03:54:29.032Z,17.74
2022-10-26T03:59:31.689Z,18.04
2022-10-26T04:04:34.447Z,17.80
2022-10-26T04:09:37.217Z,16.34
2022-10-26T04:14:39.881Z,17.27
2022-10-26T04:19:42.586Z,17.70
2022-10-26T04:24:45.320Z,17.80
2022-10-26T04:29:48.052Z,17.79
2022-10-26T04:34:50.903Z,17.79
2022-10-26T04:39:53.668Z,16.88
2022-10-26T04:44:56.544Z,15.66
2022-10-26T04:49:59.168Z,16.65
2022-10-26T04:55:06.043Z,17.20
2022-10-26T05:00:09.500Z,17.52
2022-10-26T05:05:14.273Z,17.41
2022-10-26T05:10:18.019Z,15.63
2022-10-26T05:15:21.324Z,16.50
2022-10-26T05:20:29.658Z,17.27
2022-10-26T05:25:35.578Z,17.72
2022-10-26T05:30:38.309Z,16.88
2022-10-26T05:35:41.248Z,15.92
2022-10-26T05:40:53.017Z,16.95
2022-10-26T05:45:56.059Z,17.58
2022-10-26T05:51:02.838Z,17.88
2022-10-26T05:56:26.837Z,16.20
2022-10-26T06:02:08.732Z,16.34
2022-10-26T06:07:14.541Z,17.59
2022-10-26T06:12:19.626Z,18.05
2022-10-26T06:17:59.425Z,17.59
2022-10-26T06:23:17.348Z,15.71
2022-10-26T06:28:45.064Z,16.92
2022-10-26T06:33:52.582Z,17.84
2022-10-26T06:39:08.965Z,18.20
2022-10-26T06:44:21.228Z,16.51
2022-10-26T06:49:41.651Z,16.68
2022-10-26T06:54:47.343Z,18.10
2022-10-26T07:00:09.308Z,17.47
2022-10-26T07:05:13.345Z,16.56
2022-10-26T07:10:25.226Z,18.06
2022-10-26T07:15:28.337Z,17.61
2022-10-26T07:20:35.408Z,16.90
2022-10-26T07:25:40.570Z,18.30
2022-10-26T07:30:43.846Z,17.88
2022-10-26T07:35:47.045Z,16.95
2022-10-26T07:40:50.661Z,18.29
2022-10-26T07:45:53.456Z,17.29
2022-10-26T07:50:56.225Z,16.74
2022-10-26T07:56:00.140Z,18.21
2022-10-26T08:01:11.713Z,17.58
2022-10-26T08:06:14.784Z,16.94
2022-10-26T08:11:18.152Z,18.35
2022-10-26T08:16:22.263Z,17.37
2022-10-26T08:21:36.067Z,17.86
2022-10-26T08:26:43.166Z,18.23
2022-10-26T08:31:48.841Z,16.53
2022-10-26T08:36:54.062Z,16.66
2022-10-26T08:42:05.725Z,18.34
2022-10-26T08:52:32.895Z,17.03
2022-10-26T08:57:39.663Z,18.44
2022-10-26T09:02:42.404Z,17.23
2022-10-26T09:07:57.407Z,18.29
2022-10-26T09:13:24.869Z,18.53
2022-10-26T09:24:15.843Z,19.13
2022-10-26T09:29:21.339Z,18.08
2022-10-26T09:34:30.106Z,17.21
2022-10-26T09:39:39.590Z,18.68
2022-10-26T09:45:01.599Z,17.71
2022-10-26T09:50:54.152Z,17.45
2022-10-26T09:56:13.218Z,18.39
2022-10-26T10:01:35.532Z,17.03
2022-10-26T10:06:41.411Z,18.02
2022-10-26T10:11:56.921Z,19.06
2022-10-26T10:17:08.627Z,17.42
2022-10-26T10:22:22.500Z,17.39
2022-10-26T10:27:27.741Z,18.81
2022-10-26T10:32:38.640Z,17.60
2022-10-26T10:38:01.031Z,17.66
2022-10-26T10:43:14.340Z,19.06
2022-10-26T10:48:23.389Z,17.76
2022-10-26T10:53:31.448Z,17.75
2022-10-26T10:58:44.197Z,18.85
2022-10-26T11:09:24.310Z,19.07
2022-10-26T11:14:33.276Z,17.93
2022-10-26T11:19:47.483Z,18.28
2022-10-26T11:25:13.505Z,18.88
2022-10-26T11:30:25.759Z,17.67
2022-10-26T11:35:32.353Z,19.09
2022-10-26T11:40:40.913Z,18.61
2022-10-26T11:45:48.006Z,17.82
2022-10-26T11:50:54.395Z,18.92
2022-10-26T11:55:57.575Z,17.71
2022-10-26T12:01:09.413Z,18.45
2022-10-26T12:06:15.393Z,19.22
2022-10-26T12:11:36.312Z,18.87
2022-10-26T12:17:07.253Z,19.02
2022-10-26T12:22:14.103Z,17.55
2022-10-26T12:27:35.416Z,18.98
2022-10-26T12:32:40.309Z,18.27
2022-10-26T12:37:48.495Z,16.99
2022-10-26T12:42:53.942Z,17.36
2022-10-26T12:48:34.675Z,18.78
2022-10-26T12:53:45.808Z,17.06
2022-10-26T12:59:04.991Z,17.06
2022-10-26T13:04:25.530Z,18.35
2022-10-26T13:09:33.511Z,16.82
2022-10-26T13:14:55.626Z,16.91
2022-10-26T13:20:02.640Z,17.93
2022-10-26T13:25:06.536Z,16.31
2022-10-26T13:30:09.211Z,16.85
2022-10-26T13:35:13.741Z,18.39
2022-10-26T13:40:19.641Z,17.36
2022-10-26T13:45:29.706Z,15.98
2022-10-26T13:51:04.408Z,16.61
2022-10-26T13:56:28.486Z,18.51
2022-10-26T14:01:31.735Z,17.52
2022-10-26T14:06:39.512Z,16.63
2022-10-26T14:11:59.222Z,18.23
2022-10-26T14:17:05.409Z,18.14
2022-10-26T14:22:08.256Z,16.36
2022-10-26T14:27:19.190Z,16.93
2022-10-26T14:32:22.988Z,18.29
2022-10-26T14:37:54.250Z,17.93
2022-10-26T14:43:03.777Z,15.90
2022-10-26T14:48:07.780Z,16.72
2022-10-26T14:53:20.019Z,17.92
2022-10-26T14:58:34.097Z,17.63
2022-10-26T15:03:36.846Z,15.76
2022-10-26T15:08:55.945Z,16.75
2022-10-26T15:14:01.499Z,17.83
2022-10-26T15:19:11.079Z,17.45
2022-10-26T15:24:22.147Z,15.37
2022-10-26T15:29:38.680Z,15.68
2022-10-26T15:34:41.455Z,17.06
2022-10-26T15:39:44.154Z,17.63
2022-10-26T15:44:46.883Z,17.09
2022-10-26T15:49:49.568Z,15.40
2022-10-26T15:54:52.245Z,16.53
2022-10-26T15:59:54.915Z,17.39
2022-10-26T16:04:57.637Z,17.64
2022-10-26T16:10:00.555Z,15.82
2022-10-26T16:15:05.879Z,15.70
2022-10-26T16:20:14.670Z,16.90
2022-10-26T16:25:20.122Z,17.28
2022-10-26T16:30:26.990Z,16.68
2022-10-26T16:35:32.372Z,14.72
2022-10-26T16:40:35.149Z,15.75
2022-10-26T16:45:41.021Z,16.72
2022-10-26T16:50:43.774Z,17.07
2022-10-26T16:55:46.548Z,15.83
2022-10-26T17:00:54.979Z,14.77
2022-10-26T17:05:59.867Z,16.11
2022-10-26T17:11:08.965Z,16.55
2022-10-26T17:16:21.474Z,14.93
2022-10-26T17:21:34.510Z,15.07
2022-10-26T17:26:37.535Z,16.22
2022-10-26T17:31:40.335Z,16.69
2022-10-26T17:36:43.150Z,15.52
2022-10-26T17:41:45.899Z,14.63
2022-10-26T17:46:48.582Z,15.94
2022-10-26T17:51:51.407Z,16.62
2022-10-26T17:56:54.089Z,16.06
2022-10-26T18:01:57.074Z,14.29
2022-10-26T18:06:59.914Z,15.53
2022-10-26T18:12:02.741Z,16.51
2022-10-26T18:17:05.436Z,16.09
2022-10-26T18:22:08.142Z,14.29
2022-10-26T18:27:10.870Z,15.38
2022-10-26T18:32:13.612Z,16.26
2022-10-26T18:37:16.302Z,16.63
2022-10-26T18:42:18.993Z,15.22
2022-10-26T18:47:21.661Z,14.58
2022-10-26T18:52:27.254Z,15.97
2022-10-26T18:57:30.075Z,16.53
2022-10-26T19:02:32.790Z,15.38
2022-10-26T19:07:38.022Z,14.44
2022-10-26T19:12:40.706Z,15.85
2022-10-26T19:17:43.452Z,16.34
2022-10-26T19:22:46.182Z,14.61
2022-10-26T19:27:49.223Z,14.05
2022-10-26T19:32:52.771Z,15.55
2022-10-26T19:37:55.866Z,16.24
2022-10-26T19:42:59.168Z,15.68
2022-10-26T19:48:01.859Z,13.76
2022-10-26T19:53:04.565Z,14.72
2022-10-26T19:58:07.275Z,15.73
2022-10-26T20:03:11.859Z,16.22
2022-10-26T20:08:14.546Z,15.63
2022-10-26T20:13:17.240Z,13.73
2022-10-26T20:18:21.295Z,14.71
2022-10-26T20:23:24.615Z,15.91
2022-10-26T20:28:27.397Z,16.50
2022-10-26T20:33:30.156Z,16.01
2022-10-26T20:38:33.177Z,14.15
2022-10-26T20:43:39.462Z,15.19
2022-10-26T20:48:42.920Z,16.17
2022-10-26T20:53:52.754Z,16.51
2022-10-26T20:58:58.960Z,16.77
2022-10-26T21:04:03.525Z,15.50
2022-10-26T21:09:07.671Z,14.44
2022-10-26T21:14:10.356Z,15.84
2022-10-26T21:19:13.853Z,16.54
2022-10-26T21:24:16.649Z,15.51
2022-10-26T21:29:19.371Z,14.41
2022-10-26T21:34:22.090Z,15.84
2022-10-26T21:39:24.785Z,16.52
2022-10-26T21:44:42.776Z,15.69
2022-10-26T21:49:45.562Z,13.92
2022-10-26T21:54:48.279Z,15.28
2022-10-26T21:59:51.216Z,16.25
2022-10-26T22:04:54.030Z,16.55
2022-10-26T22:10:10.231Z,15.02
2022-10-26T22:15:13.901Z,14.96
2022-10-26T22:20:16.687Z,16.02
2022-10-26T22:25:19.391Z,16.61
2022-10-26T22:30:22.099Z,17.06
2022-10-26T22:35:29.582Z,17.36
2022-10-26T22:40:32.831Z,16.70
2022-10-26T22:45:35.508Z,15.48
2022-10-26T22:50:38.902Z,16.68
2022-10-26T22:55:42.207Z,17.33
2022-10-26T23:00:44.965Z,17.32
2022-10-26T23:05:48.448Z,15.42
2022-10-26T23:10:51.228Z,16.18
2022-10-26T23:15:53.952Z,16.96
2022-10-26T23:20:56.616Z,17.42
2022-10-26T23:26:04.703Z,17.75
2022-10-26T23:31:08.136Z,17.44
2022-10-26T23:36:11.313Z,15.73
2022-10-26T23:41:14.587Z,16.79
2022-10-26T23:46:17.385Z,17.67
2022-10-26T23:51:20.166Z,18.12
2022-10-26T23:56:23.027Z,17.26
